Time;durP1;ratioP1;P1;durP2;ratioP2;P2;SDS_P1;SDS_P2;PMS_P1;PMS_P2;Temp;Humidity;BMP_temperature;BMP_pressure;BME280_temperature;BME280_humidity;BME280_pressure;Samples;Min_cycle;Max_cycle;Signal;HPM_P1;HPM_P2
2022/10/08 00:01:17;;;;;;;;;4.00;4.00;;;;;13.31;58.47;101792.56;5116279;27;65467;-80
2022/10/08 00:03:45;;;;;;;;;8.50;5.00;;;;;13.31;58.85;101796.94;5097850;27;48379;-81
2022/10/08 00:06:17;;;;;;;;;6.25;3.75;;;;;13.28;58.35;101800.47;5098483;27;45515;-81
2022/10/08 00:08:46;;;;;;;;;6.25;6.00;;;;;13.28;59.00;101796.97;5098673;27;45423;-81
2022/10/08 00:11:15;;;;;;;;;4.50;4.00;;;;;13.26;58.27;101788.28;5098314;27;45422;-81
2022/10/08 00:13:41;;;;;;;;;7.25;5.25;;;;;13.26;58.42;101781.34;5116600;27;46234;-80
2022/10/08 00:16:08;;;;;;;;;4.00;3.00;;;;;13.28;58.48;101795.22;5098138;27;45740;-81
2022/10/08 00:18:34;;;;;;;;;6.50;4.50;;;;;13.31;58.48;101799.53;5116053;27;45420;-81
2022/10/08 00:21:09;;;;;;;;;5.50;3.75;;;;;13.32;58.70;101796.03;5098248;27;45376;-81
2022/10/08 00:23:34;;;;;;;;;3.75;3.00;;;;;13.34;58.60;101802.09;5116291;27;47443;-81
2022/10/08 00:26:02;;;;;;;;;3.00;2.75;;;;;13.34;58.71;101800.34;5081127;27;45385;-81
2022/10/08 00:28:27;;;;;;;;;7.25;4.00;;;;;13.32;58.46;101804.75;5098424;27;45418;-81
2022/10/08 00:30:53;;;;;;;;;4.00;3.00;;;;;13.32;58.72;101804.75;5097397;27;63113;-81
2022/10/08 00:33:18;;;;;;;;;7.75;3.75;;;;;13.31;58.22;101799.53;5102618;27;46028;-81
2022/10/08 00:35:43;;;;;;;;;4.25;3.00;;;;;13.26;58.33;101804.88;5136420;27;62699;-81
2022/10/08 00:38:09;;;;;;;;;6.25;3.75;;;;;13.25;58.99;101802.28;5136211;27;70459;-80
2022/10/08 00:40:42;;;;;;;;;4.75;3.75;;;;;13.20;58.51;101799.75;5137238;27;45429;-80
2022/10/08 00:43:15;;;;;;;;;5.75;3.00;;;;;13.18;59.14;101801.53;5136972;27;47275;-80
2022/10/08 00:45:45;;;;;;;;;5.25;3.00;;;;;13.14;58.76;101808.59;5136817;27;45734;-81
2022/10/08 00:48:19;;;;;;;;;2.50;2.00;;;;;13.14;59.24;101805.13;5118429;27;45315;-81
2022/10/08 00:50:45;;;;;;;;;5.75;3.00;;;;;13.09;59.05;101805.25;5118874;27;45486;-81
2022/10/08 00:53:11;;;;;;;;;3.75;3.75;;;;;13.10;59.08;101793.03;5120569;27;55328;-80
2022/10/08 00:55:39;;;;;;;;;3.50;3.00;;;;;13.08;59.12;101798.28;5121955;27;45369;-81
2022/10/08 00:58:11;;;;;;;;;5.25;3.75;;;;;13.07;59.50;101804.41;5122155;27;45370;-81
2022/10/08 01:00:37;;;;;;;;;4.00;3.00;;;;;13.04;59.18;101801.88;5122019;27;45576;-80
2022/10/08 01:03:02;;;;;;;;;8.00;3.25;;;;;12.98;59.75;101802.88;5139244;27;67451;-80
2022/10/08 01:05:43;;;;;;;;;5.00;3.50;;;;;12.92;59.62;101807.34;5140172;27;45358;-81
2022/10/08 01:08:11;;;;;;;;;8.00;4.00;;;;;12.89;60.26;101813.53;5140488;27;45322;-81
2022/10/08 01:10:55;;;;;;;;;3.25;3.25;;;;;12.81;59.79;101812.81;5121900;27;45240;-80
2022/10/08 01:13:37;;;;;;;;;5.75;2.50;;;;;12.76;59.63;101810.31;5140076;27;46430;-81
2022/10/08 01:16:22;;;;;;;;;3.00;3.00;;;;;12.71;59.97;101808.69;5121261;27;45757;-81
2022/10/08 01:18:57;;;;;;;;;3.25;3.25;;;;;12.64;60.62;101805.31;5140243;27;45459;-81
2022/10/08 01:21:50;;;;;;;;;6.75;4.50;;;;;12.58;60.26;101802.84;5121656;27;45616;-81
2022/10/08 01:27:30;;;;;;;;;5.00;3.00;;;;;12.48;60.29;101807.41;5140104;27;45429;-81
2022/10/08 01:30:00;;;;;;;;;3.25;3.25;;;;;12.48;61.17;101796.94;5121564;27;45474;-80
2022/10/08 01:32:30;;;;;;;;;3.50;3.00;;;;;12.48;60.74;101807.41;5121649;27;45472;-80
2022/10/08 01:35:01;;;;;;;;;2.50;2.50;;;;;12.50;60.79;101800.41;5121078;27;46656;-80
2022/10/08 01:37:35;;;;;;;;;5.50;3.25;;;;;12.53;60.92;101802.06;5121441;27;45281;-80
2022/10/08 01:40:03;;;;;;;;;3.00;3.00;;;;;12.54;61.00;101796.81;5121544;27;45413;-81
2022/10/08 01:42:31;;;;;;;;;2.00;2.00;;;;;12.56;60.76;101791.56;5121453;27;45429;-81
2022/10/08 01:45:00;;;;;;;;;3.00;2.00;;;;;12.53;61.30;101787.25;5120664;27;46190;-81
2022/10/08 01:47:27;;;;;;;;;1.00;1.00;;;;;12.52;61.14;101782.94;5120996;27;45420;-80
2022/10/08 01:50:08;;;;;;;;;3.00;2.50;;;;;12.51;61.27;101782.97;5121278;27;45358;-81
2022/10/08 01:52:42;;;;;;;;;2.25;2.00;;;;;12.50;61.50;101781.22;5121253;27;45459;-80
2022/10/08 01:55:14;;;;;;;;;5.25;2.00;;;;;12.48;61.57;101793.47;5120909;27;46352;-80
2022/10/08 01:57:40;;;;;;;;;6.00;3.00;;;;;12.45;61.93;101790.94;5121027;27;45346;-80
2022/10/08 02:00:08;;;;;;;;;3.75;2.00;;;;;12.47;61.77;101790.00;5138375;27;66252;-80
2022/10/08 02:02:33;;;;;;;;;3.00;2.00;;;;;12.50;61.76;101771.66;5121013;27;45472;-80
2022/10/08 02:04:59;;;;;;;;;3.00;3.00;;;;;12.58;61.52;101774.97;5119352;27;66726;-81
2022/10/08 02:07:30;;;;;;;;;4.00;2.00;;;;;12.65;61.32;101778.31;5139271;27;45455;-80
2022/10/08 02:10:05;;;;;;;;;2.00;2.00;;;;;12.71;61.95;101780.78;5120995;27;45356;-81
2022/10/08 02:12:31;;;;;;;;;3.00;3.00;;;;;12.74;61.28;101788.59;5139433;27;45304;-81
2022/10/08 02:14:57;;;;;;;;;6.00;3.75;;;;;12.76;62.22;101776.34;5120331;27;46073;-80
2022/10/08 02:18:06;;;;;;;;;6.25;4.00;;;;;12.77;62.70;101785.03;5120177;27;53462;-81
2022/10/08 02:20:36;;;;;;;;;5.25;2.00;;;;;12.78;62.64;101787.63;5034544;28;45399;-81
2022/10/08 02:23:26;;;;;;;;;8.50;4.50;;;;;12.78;62.34;101786.75;5018104;28;45425;-81
2022/10/08 02:25:56;;;;;;;;;3.25;3.25;;;;;12.76;62.84;101783.31;5034505;28;46592;-81
2022/10/08 02:28:27;;;;;;;;;8.75;2.75;;;;;12.75;63.12;101774.59;5017696;28;45809;-80
2022/10/08 02:30:57;;;;;;;;;3.25;3.00;;;;;12.73;63.28;101778.16;5034696;28;45438;-81
2022/10/08 02:33:30;;;;;;;;;2.00;2.00;;;;;12.71;62.64;101774.72;5019797;28;45433;-81
2022/10/08 02:35:58;;;;;;;;;3.75;3.75;;;;;12.73;62.89;101778.16;5017701;28;46527;-80
2022/10/08 02:38:32;;;;;;;;;3.25;3.00;;;;;12.73;62.81;101786.84;5034443;28;45476;-80
2022/10/08 02:41:00;;;;;;;;;3.25;2.50;;;;;12.72;63.36;101779.91;5017872;28;45409;-80
2022/10/08 02:43:29;;;;;;;;;2.75;2.25;;;;;12.72;62.93;101779.91;5017534;28;45381;-81
2022/10/08 02:45:58;;;;;;;;;5.50;2.00;;;;;12.74;63.08;101782.47;5017607;28;47247;-80
2022/10/08 02:48:30;;;;;;;;;6.75;3.00;;;;;12.76;62.94;101781.56;5034135;28;45335;-80
2022/10/08 02:50:58;;;;;;;;;4.00;2.50;;;;;12.77;62.87;101771.97;5066707;27;45508;-80
2022/10/08 02:53:24;;;;;;;;;3.50;3.00;;;;;12.77;62.33;101782.41;5099646;27;45367;-81
2022/10/08 02:56:04;;;;;;;;;5.25;2.50;;;;;12.81;62.43;101783.22;5099450;27;46069;-81
2022/10/08 02:58:30;;;;;;;;;1.00;1.00;;;;;12.82;62.42;101785.81;5098871;27;45843;-81
2022/10/08 03:01:38;;;;;;;;;4.00;2.00;;;;;12.84;62.27;101789.22;5099643;27;45451;-81
2022/10/08 03:04:35;;;;;;;;;3.00;2.50;;;;;12.82;62.21;101782.34;5109186;27;45505;-81
2022/10/08 03:07:01;;;;;;;;;3.00;1.75;;;;;12.75;62.82;101774.59;5117623;27;47014;-80
2022/10/08 03:09:31;;;;;;;;;2.00;2.00;;;;;12.72;62.66;101772.09;5098682;27;57952;-80
2022/10/08 03:11:58;;;;;;;;;2.75;2.75;;;;;12.71;62.38;101782.56;5098922;27;45387;-80
2022/10/08 03:14:24;;;;;;;;;6.00;2.00;;;;;12.72;62.29;101790.38;5099222;27;45468;-81
2022/10/08 03:16:49;;;;;;;;;3.00;2.00;;;;;12.72;62.48;101782.53;5097613;27;50103;-80
2022/10/08 03:19:16;;;;;;;;;2.25;2.25;;;;;12.74;62.61;101785.09;5117351;27;45367;-81
2022/10/08 03:21:43;;;;;;;;;2.25;2.00;;;;;12.71;62.63;101780.78;5117686;27;45492;-81
2022/10/08 03:24:10;;;;;;;;;4.00;2.00;;;;;12.71;62.22;101787.78;5099150;27;45367;-80
2022/10/08 03:26:36;;;;;;;;;4.50;3.00;;;;;12.69;63.30;101784.34;5117066;27;45327;-81
2022/10/08 03:29:02;;;;;;;;;4.50;2.00;;;;;12.64;63.27;101794.03;5099006;27;45390;-81
2022/10/08 03:31:28;;;;;;;;;7.75;2.00;;;;;12.60;63.54;101803.66;5099160;27;45320;-81
2022/10/08 03:33:53;;;;;;;;;6.00;1.00;;;;;12.57;63.50;101807.22;5126283;27;70586;-81
2022/10/08 03:36:20;;;;;;;;;2.50;1.00;;;;;12.56;63.26;101799.41;5119209;27;47272;-80
2022/10/08 03:38:46;;;;;;;;;2.00;2.00;;;;;12.52;63.45;101805.59;5119557;27;45755;-81
2022/10/08 03:41:12;;;;;;;;;2.00;2.00;;;;;12.46;63.64;101801.34;5119277;27;45339;-80
2022/10/08 03:43:37;;;;;;;;;1.50;1.00;;;;;12.43;63.56;101806.63;5102270;27;45444;-81
2022/10/08 03:46:03;;;;;;;;;2.00;2.00;;;;;12.44;63.57;101810.94;5137290;27;60784;-81
2022/10/08 03:48:29;;;;;;;;;5.00;1.75;;;;;12.42;63.77;101810.09;5119166;27;45488;-80
2022/10/08 03:50:59;;;;;;;;;2.00;1.75;;;;;12.38;63.99;101811.91;5119609;27;45500;-81
2022/10/08 03:53:25;;;;;;;;;3.00;2.00;;;;;12.39;64.07;101807.59;5137928;27;45390;-80
2022/10/08 03:55:51;;;;;;;;;7.00;2.00;;;;;12.42;64.40;101815.34;5137268;27;46359;-81
2022/10/08 03:58:17;;;;;;;;;3.00;3.00;;;;;12.43;65.16;101824.06;5136839;27;68335;-81
2022/10/08 04:00:42;;;;;;;;;4.00;2.25;;;;;12.44;65.06;101825.75;5137628;27;45355;-81
2022/10/08 04:03:08;;;;;;;;;6.00;6.00;;;;;12.43;65.17;101835.34;5137240;27;62406;-81
2022/10/08 04:05:33;;;;;;;;;3.50;1.50;;;;;12.44;65.56;101841.41;5118932;27;46310;-81
2022/10/08 04:07:58;;;;;;;;;8.25;4.00;;;;;12.47;65.84;101846.59;5137668;27;45334;-81
2022/10/08 04:10:24;;;;;;;;;7.75;4.00;;;;;12.47;65.29;101847.44;5136421;27;66761;-81
2022/10/08 04:12:49;;;;;;;;;8.00;4.00;;;;;12.51;65.96;101846.50;5118304;27;60675;-80
2022/10/08 04:15:15;;;;;;;;;4.00;4.00;;;;;12.48;65.82;101846.56;5136642;27;70558;-81
2022/10/08 04:17:40;;;;;;;;;7.00;4.00;;;;;12.49;66.23;101848.28;5137220;27;45446;-81
2022/10/08 04:20:06;;;;;;;;;7.00;4.50;;;;;12.46;66.28;101848.34;5137372;27;45461;-80
2022/10/08 04:22:32;;;;;;;;;4.00;4.00;;;;;12.49;66.08;101863.09;5137517;27;45349;-81
2022/10/08 04:24:57;;;;;;;;;6.25;4.00;;;;;12.52;65.73;101860.44;5118029;27;46381;-80
2022/10/08 04:27:22;;;;;;;;;8.50;4.00;;;;;12.55;65.80;101860.34;5137753;27;61881;-81
2022/10/08 04:29:48;;;;;;;;;4.00;3.00;;;;;12.63;65.80;101865.44;5141082;27;45346;-81
2022/10/08 04:32:14;;;;;;;;;8.00;5.00;;;;;12.65;65.88;101867.13;5122034;27;54960;-80
2022/10/08 04:34:40;;;;;;;;;5.25;3.75;;;;;12.69;66.43;101871.41;5140804;27;45402;-81
2022/10/08 04:37:05;;;;;;;;;6.50;3.50;;;;;12.67;66.18;101867.97;5140031;27;67233;-80
2022/10/08 04:39:30;;;;;;;;;5.50;3.00;;;;;12.66;66.44;101876.69;5139604;27;66389;-80
2022/10/08 04:41:56;;;;;;;;;5.50;3.00;;;;;12.66;66.36;101879.28;5140205;27;65006;-80
2022/10/08 04:44:21;;;;;;;;;3.50;2.75;;;;;12.68;66.59;101871.44;5121066;27;69436;-80
2022/10/08 04:46:46;;;;;;;;;6.00;3.25;;;;;12.71;66.66;101868.78;5140699;27;45298;-81
2022/10/08 04:49:12;;;;;;;;;5.50;3.00;;;;;12.70;66.08;101865.31;5140153;27;59636;-81
2022/10/08 04:51:37;;;;;;;;;2.00;2.00;;;;;12.69;66.46;101862.72;5139728;27;70289;-80
2022/10/08 04:54:02;;;;;;;;;4.00;2.00;;;;;12.67;66.25;101872.34;5121033;27;63608;-80
2022/10/08 04:56:30;;;;;;;;;4.25;3.75;;;;;12.64;66.15;101877.59;5139767;27;65947;-81
2022/10/08 04:58:57;;;;;;;;;2.25;2.00;;;;;12.62;66.24;101875.03;5140635;27;45425;-81
2022/10/08 05:01:23;;;;;;;;;4.00;2.00;;;;;12.61;66.03;101872.44;5140493;27;45478;-81
2022/10/08 05:03:50;;;;;;;;;4.75;1.75;;;;;12.57;65.87;101880.34;5140291;27;47021;-80
2022/10/08 05:06:17;;;;;;;;;3.25;3.00;;;;;12.53;66.19;101880.41;5140479;27;45697;-81
2022/10/08 05:08:43;;;;;;;;;3.50;3.00;;;;;12.50;66.24;101878.75;5140187;27;45389;-80
2022/10/08 05:11:09;;;;;;;;;6.25;2.00;;;;;12.48;66.50;101885.75;5121851;27;45370;-80
2022/10/08 05:13:34;;;;;;;;;3.75;3.75;;;;;12.44;66.39;101889.28;5120969;27;64883;-81
2022/10/08 05:16:10;;;;;;;;;6.50;4.00;;;;;12.42;66.99;101890.22;5140236;27;45350;-80
2022/10/08 05:18:37;;;;;;;;;6.25;4.50;;;;;12.38;67.33;101892.84;5140454;27;45378;-80
2022/10/08 05:21:16;;;;;;;;;7.25;6.00;;;;;12.37;67.94;101891.16;5140102;27;45509;-81
2022/10/08 05:23:42;;;;;;;;;8.25;4.00;;;;;12.37;67.48;101895.53;5121113;27;46839;-80
2022/10/08 05:26:15;;;;;;;;;6.00;6.00;;;;;12.35;67.78;101897.28;5140131;27;45278;-80
2022/10/08 05:28:41;;;;;;;;;6.50;3.00;;;;;12.33;68.66;101902.56;5121731;27;45334;-80
2022/10/08 05:31:06;;;;;;;;;3.00;3.00;;;;;12.32;68.70;101903.44;5140280;27;45208;-81
2022/10/08 05:33:34;;;;;;;;;4.00;3.00;;;;;12.33;68.27;101904.28;5138684;27;75766;-80
2022/10/08 05:36:05;;;;;;;;;6.00;3.00;;;;;12.33;69.10;101906.88;5121395;27;45921;-81
2022/10/08 05:38:30;;;;;;;;;3.25;3.00;;;;;12.34;68.89;101919.91;5120365;27;45343;-81
2022/10/08 05:41:10;;;;;;;;;6.75;2.00;;;;;12.35;68.59;101920.78;5139886;27;45363;-80
2022/10/08 05:43:35;;;;;;;;;7.00;3.00;;;;;12.35;68.69;101913.81;5139930;27;46245;-81
2022/10/08 05:46:01;;;;;;;;;2.75;2.00;;;;;12.35;69.02;101908.59;5120990;27;45422;-81
2022/10/08 05:48:26;;;;;;;;;3.50;2.25;;;;;12.36;68.72;101912.06;5121206;27;46322;-81
2022/10/08 05:50:51;;;;;;;;;3.00;1.50;;;;;12.34;68.29;101914.69;5138870;27;66314;-81
2022/10/08 05:53:17;;;;;;;;;2.00;1.00;;;;;12.34;68.67;101912.09;5138345;27;75739;-81
2022/10/08 05:55:42;;;;;;;;;7.00;1.50;;;;;12.32;68.92;101907.78;5138533;27;71407;-81
2022/10/08 05:58:07;;;;;;;;;2.75;2.00;;;;;12.31;68.74;101916.50;5138824;27;65767;-80
2022/10/08 06:00:32;;;;;;;;;3.25;1.50;;;;;12.30;69.62;101920.00;5120434;27;57190;-81
2022/10/08 06:02:58;;;;;;;;;2.00;2.00;;;;;12.30;69.70;101928.69;5139291;27;53706;-81
2022/10/08 06:05:23;;;;;;;;;1.50;1.00;;;;;12.29;69.77;101926.13;5138614;27;60645;-82
2022/10/08 06:07:48;;;;;;;;;2.50;2.00;;;;;12.28;69.93;101924.41;5139650;27;45279;-81
2022/10/08 06:10:14;;;;;;;;;8.25;1.00;;;;;12.30;68.95;101935.69;5116607;27;65911;-81
2022/10/08 06:12:39;;;;;;;;;6.25;2.00;;;;;12.33;69.05;101936.50;5103788;27;45498;-81
2022/10/08 06:15:05;;;;;;;;;3.00;2.75;;;;;12.35;68.80;101944.28;5120725;27;62756;-80
2022/10/08 06:17:30;;;;;;;;;1.50;1.25;;;;;12.38;68.15;101952.06;5120261;27;45491;-81
2022/10/08 06:19:56;;;;;;;;;3.50;3.00;;;;;12.39;68.38;101953.81;5134695;27;55369;-81
2022/10/08 06:22:21;;;;;;;;;4.00;2.00;;;;;12.37;68.12;101959.03;5139038;27;47036;-80
2022/10/08 06:24:46;;;;;;;;;2.00;2.00;;;;;12.36;67.36;101956.44;5138182;27;67594;-81
2022/10/08 06:27:12;;;;;;;;;5.50;3.00;;;;;12.39;67.93;101962.50;5128377;27;65568;-81
2022/10/08 06:29:37;;;;;;;;;3.50;2.00;;;;;12.37;67.92;101960.81;5132468;27;69367;-81
2022/10/08 06:32:02;;;;;;;;;4.50;2.75;;;;;12.35;67.84;101967.78;5137704;27;69856;-81
2022/10/08 06:34:28;;;;;;;;;3.75;1.75;;;;;12.32;68.17;101963.47;5122795;27;64793;-80
2022/10/08 06:36:53;;;;;;;;;2.00;2.00;;;;;12.29;68.40;101965.28;5118356;27;63805;-80
2022/10/08 06:39:18;;;;;;;;;6.50;4.00;;;;;12.24;68.76;101967.09;5117636;27;57169;-80
2022/10/08 06:41:44;;;;;;;;;6.75;3.00;;;;;12.23;68.69;101966.25;5132783;27;47398;-81
2022/10/08 06:44:12;;;;;;;;;6.00;5.50;;;;;12.22;68.30;101974.09;5118059;27;45448;-80
2022/10/08 06:46:37;;;;;;;;;7.00;2.00;;;;;12.24;68.41;101975.81;5121323;27;45409;-80
2022/10/08 06:49:06;;;;;;;;;3.50;3.00;;;;;12.28;68.37;101987.06;5138265;27;45483;-79
2022/10/08 06:51:32;;;;;;;;;4.25;3.00;;;;;12.29;69.19;101986.16;5100062;27;46476;-80
2022/10/08 06:54:01;;;;;;;;;3.00;3.00;;;;;12.28;68.85;101984.44;5105034;27;45392;-82
2022/10/08 06:56:26;;;;;;;;;5.50;2.25;;;;;12.30;69.37;101996.59;5105389;27;45527;-80
2022/10/08 06:58:52;;;;;;;;;7.00;2.75;;;;;12.31;69.83;101997.44;5118010;27;50372;-80
2022/10/08 07:01:25;;;;;;;;;4.25;2.50;;;;;12.32;69.92;101999.19;5099152;27;46114;-80
2022/10/08 07:03:53;;;;;;;;;10.75;3.00;;;;;12.34;69.49;102005.22;5099021;27;45381;-80
2022/10/08 07:06:19;;;;;;;;;4.00;4.00;;;;;12.37;70.86;102006.03;5117687;27;45416;-80
2022/10/08 07:08:44;;;;;;;;;1.75;1.50;;;;;12.39;71.01;102014.72;5117845;27;45440;-80
2022/10/08 07:11:15;;;;;;;;;4.25;2.00;;;;;12.41;71.04;102014.69;5117591;27;45414;-80
2022/10/08 07:13:41;;;;;;;;;2.00;2.00;;;;;12.43;71.84;102020.75;5099090;27;45421;-81
2022/10/08 07:16:09;;;;;;;;;3.00;2.00;;;;;12.50;70.84;102021.50;5118140;27;45494;-80
2022/10/08 07:18:35;;;;;;;;;3.25;3.25;;;;;12.56;70.84;102027.50;5117188;27;45450;-80
2022/10/08 07:21:00;;;;;;;;;5.50;3.00;;;;;12.61;70.85;102021.31;5098789;27;47240;-80
2022/10/08 07:23:26;;;;;;;;;5.50;3.00;;;;;12.63;71.34;102028.25;5099196;27;45293;-80
2022/10/08 07:25:56;;;;;;;;;4.50;4.50;;;;;12.64;71.65;102031.72;5117359;27;45288;-80
2022/10/08 07:28:23;;;;;;;;;3.00;3.00;;;;;12.67;71.33;102047.38;5117636;27;45466;-80
2022/10/08 07:30:48;;;;;;;;;7.50;2.75;;;;;12.70;72.13;102042.06;5098928;27;45483;-80
2022/10/08 07:33:14;;;;;;;;;3.75;2.00;;;;;12.73;72.25;102048.09;5120622;27;62218;-80
2022/10/08 07:35:39;;;;;;;;;6.00;3.00;;;;;12.76;72.19;102050.66;5138205;27;45419;-80
2022/10/08 07:38:04;;;;;;;;;26.00;19.50;;;;;12.81;72.22;102052.34;5137070;27;67112;-80
2022/10/08 07:40:29;;;;;;;;;31.00;27.75;;;;;12.84;72.27;102055.75;5137088;27;68948;-80
2022/10/08 07:42:55;;;;;;;;;6.25;4.50;;;;;12.88;71.56;102053.97;5137151;27;66259;-80
2022/10/08 07:45:20;;;;;;;;;11.75;11.75;;;;;12.94;71.26;102059.91;5137989;27;45343;-80
2022/10/08 07:47:45;;;;;;;;;8.00;7.00;;;;;13.00;71.23;102061.59;5137798;27;45488;-80
2022/10/08 07:50:11;;;;;;;;;13.00;9.75;;;;;13.05;70.84;102064.97;5136736;27;75535;-80
2022/10/08 07:52:36;;;;;;;;;9.75;5.00;;;;;13.14;70.82;102072.63;5136858;27;73309;-80
2022/10/08 07:55:01;;;;;;;;;6.75;4.00;;;;;13.21;70.27;102077.78;5137035;27;66010;-80
2022/10/08 07:57:27;;;;;;;;;6.00;6.00;;;;;13.25;71.31;102082.91;5137903;27;45165;-80
2022/10/08 07:59:52;;;;;;;;;9.25;7.00;;;;;13.28;71.06;102080.25;5137433;27;54623;-80
2022/10/08 08:02:17;;;;;;;;;8.75;6.00;;;;;13.29;71.71;102079.34;5119899;27;45419;-81
2022/10/08 08:04:43;;;;;;;;;12.25;12.25;;;;;13.31;71.21;102088.03;5140598;27;63541;-80
2022/10/08 08:07:08;;;;;;;;;14.25;11.25;;;;;13.34;71.08;102090.63;5141611;27;45529;-80
2022/10/08 08:09:34;;;;;;;;;14.75;11.00;;;;;13.41;70.95;102093.09;5141245;27;45321;-80
2022/10/08 08:11:59;;;;;;;;;5.25;3.00;;;;;13.48;70.37;102094.72;5122858;27;45398;-81
2022/10/08 08:14:24;;;;;;;;;15.00;12.00;;;;;13.54;70.49;102089.38;5140345;27;69416;-81
2022/10/08 08:16:50;;;;;;;;;16.00;12.25;;;;;13.58;70.73;102104.13;5140881;27;45252;-81
2022/10/08 08:19:15;;;;;;;;;18.00;16.25;;;;;13.62;71.02;102100.53;5140571;27;57120;-81
2022/10/08 08:21:40;;;;;;;;;8.00;7.75;;;;;13.66;70.71;102103.97;5141251;27;45336;-80
2022/10/08 08:24:15;;;;;;;;;8.50;7.25;;;;;13.72;70.25;102102.09;5122575;27;45455;-80
2022/10/08 08:26:41;;;;;;;;;9.50;7.25;;;;;13.80;70.44;102111.50;5141188;27;45338;-81
2022/10/08 08:29:12;;;;;;;;;8.00;7.75;;;;;13.86;70.23;102114.88;5141139;27;46241;-80
2022/10/08 08:31:42;;;;;;;;;11.50;8.50;;;;;13.94;69.68;102122.56;5122084;27;45973;-81
2022/10/08 08:34:09;;;;;;;;;13.25;9.75;;;;;14.02;69.88;102130.25;5122591;27;45424;-81
2022/10/08 08:36:38;;;;;;;;;8.75;8.00;;;;;14.09;69.30;102127.47;5122409;27;45569;-81
2022/10/08 08:39:04;;;;;;;;;11.75;9.50;;;;;14.14;69.54;102130.88;5140825;27;45498;-80
2022/10/08 08:41:33;;;;;;;;;35.75;33.50;;;;;14.21;69.32;102138.56;5122242;27;45906;-80
2022/10/08 08:44:01;;;;;;;;;18.75;11.25;;;;;14.27;69.71;102136.69;5140998;27;45417;-81
2022/10/08 08:46:29;;;;;;;;;9.00;6.50;;;;;14.35;68.82;102140.91;5121993;27;45422;-80
2022/10/08 08:48:57;;;;;;;;;7.50;7.50;;;;;14.41;68.67;102136.41;5140466;27;45747;-80
2022/10/08 08:51:23;;;;;;;;;6.00;4.75;;;;;14.49;68.15;102137.06;5140822;27;45864;-80
2022/10/08 08:53:48;;;;;;;;;7.00;3.00;;;;;14.55;68.23;102143.09;5140112;27;62344;-80
2022/10/08 08:56:18;;;;;;;;;3.75;3.75;;;;;14.59;68.18;102147.38;5122126;27;45319;-80
2022/10/08 08:58:50;;;;;;;;;5.00;3.75;;;;;14.64;68.14;102148.13;5119255;27;46328;-80
2022/10/08 09:01:28;;;;;;;;;2.00;2.00;;;;;14.70;67.69;102153.22;5121485;27;45313;-80
2022/10/08 09:03:56;;;;;;;;;6.75;2.00;;;;;14.76;67.55;102157.47;5140531;27;45380;-80
2022/10/08 09:06:24;;;;;;;;;3.50;1.75;;;;;14.83;67.24;102151.19;5121992;27;45399;-80
2022/10/08 09:09:27;;;;;;;;;5.00;2.25;;;;;14.91;67.04;102154.47;5140181;27;46862;-80
2022/10/08 09:11:53;;;;;;;;;4.00;3.00;;;;;14.96;66.75;102151.75;5140473;27;45794;-80
2022/10/08 09:14:39;;;;;;;;;5.75;2.50;;;;;15.02;67.03;102148.97;5104275;27;45409;-80
2022/10/08 09:17:16;;;;;;;;;5.00;4.00;;;;;15.07;66.86;102154.97;5121842;27;45414;-81
2022/10/08 09:19:42;;;;;;;;;4.00;3.25;;;;;15.15;66.29;102153.00;5139839;27;47096;-80
2022/10/08 09:22:28;;;;;;;;;2.25;2.00;;;;;15.24;65.35;102159.78;5121685;27;45269;-80
2022/10/08 09:25:14;;;;;;;;;2.00;1.75;;;;;15.29;65.18;102161.38;5121579;27;45381;-80
2022/10/08 09:27:50;;;;;;;;;3.25;1.75;;;;;15.36;64.90;102163.81;5121728;27;45512;-80
2022/10/08 09:30:47;;;;;;;;;2.75;2.75;;;;;15.46;64.36;102171.41;5139575;27;46612;-80
2022/10/08 09:33:15;;;;;;;;;3.25;3.00;;;;;15.53;64.35;102164.25;5034756;28;63201;-80
2022/10/08 09:35:43;;;;;;;;;4.00;3.25;;;;;15.60;64.05;102164.94;5035458;28;45360;-80
2022/10/08 09:38:23;;;;;;;;;10.00;6.00;;;;;15.64;63.93;102166.59;5035549;28;45374;-80
2022/10/08 09:41:05;;;;;;;;;3.25;2.00;;;;;15.75;63.53;102174.19;5018705;28;45890;-80
2022/10/08 09:43:32;;;;;;;;;1.00;1.00;;;;;15.82;62.24;102166.13;5034887;28;45805;-80
2022/10/08 09:45:58;;;;;;;;;3.00;1.00;;;;;15.91;62.03;102169.38;5035407;28;46009;-80
2022/10/08 09:48:28;;;;;;;;;4.00;1.00;;;;;15.98;62.01;102174.41;5035364;28;45615;-80
2022/10/08 09:51:25;;;;;;;;;1.00;1.00;;;;;16.07;61.41;102168.03;5035169;28;46991;-80
2022/10/08 09:53:53;;;;;;;;;2.75;0.00;;;;;16.21;61.04;102176.38;4975777;28;45891;-80
2022/10/08 09:56:26;;;;;;;;;2.75;2.00;;;;;16.33;61.46;102169.88;4975835;28;45513;-80
2022/10/08 09:58:59;;;;;;;;;2.00;2.00;;;;;16.56;60.78;102170.94;4959808;28;45401;-80
2022/10/08 10:01:25;;;;;;;;;1.75;1.75;;;;;16.80;60.47;102182.44;4975500;28;47188;-80
2022/10/08 10:03:56;;;;;;;;;6.50;2.00;;;;;16.96;60.36;102177.59;4975565;28;54597;-80
2022/10/08 10:06:26;;;;;;;;;3.25;2.50;;;;;17.10;59.42;102175.34;4975744;28;45459;-80
2022/10/08 10:08:55;;;;;;;;;2.00;1.00;;;;;17.21;59.47;102175.00;4996204;28;45599;-81
2022/10/08 10:11:27;;;;;;;;;2.00;1.00;;;;;17.40;58.58;102176.09;4981980;28;46104;-80
2022/10/08 10:13:54;;;;;;;;;1.75;1.50;;;;;17.57;58.36;102182.53;4998097;28;45722;-80
2022/10/08 10:16:23;;;;;;;;;2.00;1.00;;;;;17.58;56.89;102184.25;4997279;28;69587;-80
2022/10/08 10:18:51;;;;;;;;;0.00;0.00;;;;;17.51;56.57;102188.00;5010604;28;45562;-80
2022/10/08 10:21:25;;;;;;;;;0.00;0.00;;;;;17.38;56.11;102187.56;5034784;28;45576;-80
2022/10/08 10:23:56;;;;;;;;;2.00;0.75;;;;;17.27;56.33;102189.72;5034855;28;45461;-80
2022/10/08 10:26:25;;;;;;;;;2.00;1.00;;;;;17.28;55.49;102191.44;5034104;28;45529;-80
2022/10/08 10:29:04;;;;;;;;;0.25;0.25;;;;;17.40;55.82;102189.25;5060624;27;45464;-80
2022/10/08 10:31:41;;;;;;;;;0.00;0.00;;;;;17.57;54.67;102193.94;5120459;27;46251;-80
2022/10/08 10:34:12;;;;;;;;;1.50;0.75;;;;;17.71;53.86;102189.94;5108815;27;45717;-80
2022/10/08 10:36:42;;;;;;;;;0.00;0.00;;;;;17.87;54.03;102185.88;5099578;27;45391;-80
2022/10/08 10:39:34;;;;;;;;;2.00;1.75;;;;;18.12;54.45;102182.31;5099802;27;45436;-80
2022/10/08 10:42:18;;;;;;;;;0.50;0.00;;;;;18.44;53.23;102178.44;5117843;27;45327;-81
2022/10/08 10:44:56;;;;;;;;;2.75;0.75;;;;;18.60;52.12;102183.97;5122635;27;45402;-80
2022/10/08 10:47:29;;;;;;;;;0.00;0.00;;;;;18.61;51.77;102176.91;5114214;27;45436;-80
2022/10/08 10:49:55;;;;;;;;;2.25;0.00;;;;;18.64;52.35;102182.06;5118747;27;45407;-81
2022/10/08 10:52:33;;;;;;;;;2.75;2.00;;;;;18.73;51.81;102179.91;5105377;27;46114;-81
2022/10/08 10:55:09;;;;;;;;;0.50;0.00;;;;;18.91;51.06;102182.78;5138794;27;45650;-80
2022/10/08 10:57:48;;;;;;;;;3.50;2.00;;;;;19.05;50.10;102188.31;5138332;27;45339;-81
2022/10/08 11:00:22;;;;;;;;;2.00;1.00;;;;;19.20;50.09;102191.25;5138587;27;45559;-80
2022/10/08 11:03:01;;;;;;;;;2.00;1.00;;;;;19.28;49.55;102183.88;5112094;27;45413;-80
2022/10/08 11:05:31;;;;;;;;;0.25;0.25;;;;;19.42;48.74;102185.91;5117572;27;45335;-80
2022/10/08 11:08:14;;;;;;;;;1.50;0.25;;;;;19.54;46.52;102180.97;5099620;27;45460;-79
2022/10/08 11:11:10;;;;;;;;;1.00;1.00;;;;;19.80;47.89;102186.03;5117400;27;45341;-80
2022/10/08 11:14:00;;;;;;;;;0.00;0.00;;;;;21.85;46.04;102187.50;5117434;27;45557;-81
2022/10/08 11:16:53;;;;;;;;;0.50;0.50;;;;;24.75;42.81;102183.66;5117280;27;45359;-81
2022/10/08 11:19:25;;;;;;;;;0.75;0.00;;;;;25.71;37.41;102186.88;5115818;27;45529;-81
2022/10/08 11:22:18;;;;;;;;;0.50;0.50;;;;;24.32;37.29;102189.94;5119902;27;45479;-81
2022/10/08 11:24:58;;;;;;;;;0.00;0.00;;;;;23.23;36.91;102193.97;5119038;27;46144;-80
2022/10/08 11:27:35;;;;;;;;;3.00;2.00;;;;;23.56;39.96;102188.44;5119575;27;45848;-81
2022/10/08 11:30:05;;;;;;;;;0.25;0.25;;;;;26.03;38.40;102187.28;5119705;27;45317;-80
2022/10/08 11:32:31;;;;;;;;;2.00;0.00;;;;;28.16;35.36;102188.09;5119693;27;45402;-80
2022/10/08 11:35:05;;;;;;;;;0.00;0.00;;;;;30.20;33.14;102184.22;5137671;27;46587;-81
2022/10/08 11:37:35;;;;;;;;;0.00;0.00;;;;;31.58;29.85;102189.44;5136269;27;45340;-81
2022/10/08 11:40:29;;;;;;;;;2.00;0.00;;;;;31.75;26.02;102191.34;5137563;27;45299;-81